sensor_id;sensor_type;location;lat;lon;timestamp;P1;durP1;ratioP1;P2;durP2;ratioP2
78169;SDS011;67412;49.892;14.490;2023-03-01T00:00:10;28.83;;;10.27;;
78169;SDS011;67412;49.892;14.490;2023-03-01T00:02:36;23.90;;;7.40;;
78169;SDS011;67412;49.892;14.490;2023-03-01T00:05:02;22.40;;;8.00;;
78169;SDS011;67412;49.892;14.490;2023-03-01T00:07:28;24.67;;;9.10;;
78169;SDS011;67412;49.892;14.490;2023-03-01T00:09:54;26.80;;;9.45;;
78169;SDS011;67412;49.892;14.490;2023-03-01T00:12:19;23.00;;;8.98;;
78169;SDS011;67412;49.892;14.490;2023-03-01T00:14:45;23.67;;;8.52;;
78169;SDS011;67412;49.892;14.490;2023-03-01T00:17:10;18.75;;;7.32;;
78169;SDS011;67412;49.892;14.490;2023-03-01T00:19:36;17.60;;;6.38;;
78169;SDS011;67412;49.892;14.490;2023-03-01T00:22:02;22.98;;;8.48;;
78169;SDS011;67412;49.892;14.490;2023-03-01T00:24:27;20.77;;;8.00;;
78169;SDS011;67412;49.892;14.490;2023-03-01T00:26:53;17.58;;;7.05;;
78169;SDS011;67412;49.892;14.490;2023-03-01T00:29:21;22.42;;;7.78;;
78169;SDS011;67412;49.892;14.490;2023-03-01T00:31:47;24.13;;;8.02;;
78169;SDS011;67412;49.892;14.490;2023-03-01T00:34:12;20.48;;;7.90;;
78169;SDS011;67412;49.892;14.490;2023-03-01T00:36:38;22.63;;;8.60;;
78169;SDS011;67412;49.892;14.490;2023-03-01T00:39:04;23.65;;;8.60;;
78169;SDS011;67412;49.892;14.490;2023-03-01T00:41:32;18.85;;;7.05;;
78169;SDS011;67412;49.892;14.490;2023-03-01T00:43:59;18.60;;;6.68;;
78169;SDS011;67412;49.892;14.490;2023-03-01T00:46:26;20.52;;;7.60;;
78169;SDS011;67412;49.892;14.490;2023-03-01T00:48:52;21.50;;;7.90;;
78169;SDS011;67412;49.892;14.490;2023-03-01T00:51:19;23.70;;;8.13;;
78169;SDS011;67412;49.892;14.490;2023-03-01T00:53:51;23.77;;;8.55;;
78169;SDS011;67412;49.892;14.490;2023-03-01T00:56:17;21.45;;;7.68;;
78169;SDS011;67412;49.892;14.490;2023-03-01T00:58:43;20.35;;;7.68;;
78169;SDS011;67412;49.892;14.490;2023-03-01T01:01:13;23.67;;;7.95;;
78169;SDS011;67412;49.892;14.490;2023-03-01T01:08:47;24.60;;;8.57;;
78169;SDS011;67412;49.892;14.490;2023-03-01T01:11:13;22.08;;;8.27;;
78169;SDS011;67412;49.892;14.490;2023-03-01T01:13:39;24.85;;;7.85;;
78169;SDS011;67412;49.892;14.490;2023-03-01T01:16:05;22.60;;;7.38;;
78169;SDS011;67412;49.892;14.490;2023-03-01T01:18:30;23.08;;;8.20;;
78169;SDS011;67412;49.892;14.490;2023-03-01T01:20:56;26.00;;;9.27;;
78169;SDS011;67412;49.892;14.490;2023-03-01T01:23:21;24.23;;;8.25;;
78169;SDS011;67412;49.892;14.490;2023-03-01T01:25:47;24.75;;;8.52;;
78169;SDS011;67412;49.892;14.490;2023-03-01T01:28:12;20.60;;;7.38;;
78169;SDS011;67412;49.892;14.490;2023-03-01T01:30:38;22.08;;;8.55;;
78169;SDS011;67412;49.892;14.490;2023-03-01T01:33:03;23.58;;;8.68;;
78169;SDS011;67412;49.892;14.490;2023-03-01T01:35:28;23.83;;;7.88;;
78169;SDS011;67412;49.892;14.490;2023-03-01T01:37:54;22.95;;;7.53;;
78169;SDS011;67412;49.892;14.490;2023-03-01T01:40:19;24.33;;;8.25;;
78169;SDS011;67412;49.892;14.490;2023-03-01T01:42:44;23.85;;;8.15;;
78169;SDS011;67412;49.892;14.490;2023-03-01T01:47:55;22.95;;;8.10;;
78169;SDS011;67412;49.892;14.490;2023-03-01T01:50:23;23.23;;;7.50;;
78169;SDS011;67412;49.892;14.490;2023-03-01T01:52:50;21.67;;;7.68;;
78169;SDS011;67412;49.892;14.490;2023-03-01T01:55:19;22.08;;;7.35;;
78169;SDS011;67412;49.892;14.490;2023-03-01T01:57:55;26.25;;;8.13;;
78169;SDS011;67412;49.892;14.490;2023-03-01T02:00:24;22.35;;;7.43;;
78169;SDS011;67412;49.892;14.490;2023-03-01T02:03:07;24.33;;;7.65;;
78169;SDS011;67412;49.892;14.490;2023-03-01T02:05:42;23.08;;;7.97;;
78169;SDS011;67412;49.892;14.490;2023-03-01T02:08:13;19.00;;;7.22;;
78169;SDS011;67412;49.892;14.490;2023-03-01T02:10:43;24.73;;;8.07;;
78169;SDS011;67412;49.892;14.490;2023-03-01T02:13:10;22.38;;;8.00;;
78169;SDS011;67412;49.892;14.490;2023-03-01T02:15:36;20.83;;;7.57;;
78169;SDS011;67412;49.892;14.490;2023-03-01T02:18:05;25.17;;;8.52;;
78169;SDS011;67412;49.892;14.490;2023-03-01T02:20:39;23.00;;;7.85;;
78169;SDS011;67412;49.892;14.490;2023-03-01T02:23:28;22.65;;;7.53;;
78169;SDS011;67412;49.892;14.490;2023-03-01T02:26:07;24.98;;;8.27;;
78169;SDS011;67412;49.892;14.490;2023-03-01T02:28:42;19.67;;;8.32;;
78169;SDS011;67412;49.892;14.490;2023-03-01T02:33:53;18.70;;;7.22;;
78169;SDS011;67412;49.892;14.490;2023-03-01T02:36:21;25.85;;;7.85;;
78169;SDS011;67412;49.892;14.490;2023-03-01T02:38:51;22.23;;;7.38;;
78169;SDS011;67412;49.892;14.490;2023-03-01T02:41:20;22.13;;;7.55;;
78169;SDS011;67412;49.892;14.490;2023-03-01T02:43:48;18.15;;;6.78;;
78169;SDS011;67412;49.892;14.490;2023-03-01T02:46:17;22.70;;;7.25;;
78169;SDS011;67412;49.892;14.490;2023-03-01T02:48:46;18.08;;;6.78;;
78169;SDS011;67412;49.892;14.490;2023-03-01T02:51:25;20.02;;;7.80;;
78169;SDS011;67412;49.892;14.490;2023-03-01T02:56:45;18.38;;;6.65;;
78169;SDS011;67412;49.892;14.490;2023-03-01T02:59:16;23.83;;;7.18;;
78169;SDS011;67412;49.892;14.490;2023-03-01T03:01:43;19.48;;;7.10;;
78169;SDS011;67412;49.892;14.490;2023-03-01T03:04:10;21.55;;;7.45;;
78169;SDS011;67412;49.892;14.490;2023-03-01T03:06:42;21.42;;;7.30;;
78169;SDS011;67412;49.892;14.490;2023-03-01T03:09:11;22.10;;;7.13;;
78169;SDS011;67412;49.892;14.490;2023-03-01T03:11:37;28.90;;;7.47;;
78169;SDS011;67412;49.892;14.490;2023-03-01T03:14:04;19.45;;;7.55;;
78169;SDS011;67412;49.892;14.490;2023-03-01T03:16:30;20.17;;;6.70;;
78169;SDS011;67412;49.892;14.490;2023-03-01T03:18:56;20.90;;;6.10;;
78169;SDS011;67412;49.892;14.490;2023-03-01T03:21:30;20.88;;;7.75;;
78169;SDS011;67412;49.892;14.490;2023-03-01T03:23:56;18.05;;;6.60;;
78169;SDS011;67412;49.892;14.490;2023-03-01T03:26:22;18.85;;;6.45;;
78169;SDS011;67412;49.892;14.490;2023-03-01T03:28:48;20.00;;;7.05;;
78169;SDS011;67412;49.892;14.490;2023-03-01T03:31:13;20.27;;;7.53;;
78169;SDS011;67412;49.892;14.490;2023-03-01T03:33:38;19.55;;;7.13;;
78169;SDS011;67412;49.892;14.490;2023-03-01T03:36:04;17.50;;;6.45;;
78169;SDS011;67412;49.892;14.490;2023-03-01T03:38:29;19.73;;;7.55;;
78169;SDS011;67412;49.892;14.490;2023-03-01T03:41:02;17.45;;;6.80;;
78169;SDS011;67412;49.892;14.490;2023-03-01T03:43:31;18.13;;;6.53;;
78169;SDS011;67412;49.892;14.490;2023-03-01T03:45:59;21.33;;;7.38;;
78169;SDS011;67412;49.892;14.490;2023-03-01T03:48:24;16.17;;;6.32;;
78169;SDS011;67412;49.892;14.490;2023-03-01T03:50:54;19.83;;;6.50;;
78169;SDS011;67412;49.892;14.490;2023-03-01T03:53:22;21.70;;;6.38;;
78169;SDS011;67412;49.892;14.490;2023-03-01T03:55:48;18.27;;;6.78;;
78169;SDS011;67412;49.892;14.490;2023-03-01T03:58:14;20.00;;;6.60;;
78169;SDS011;67412;49.892;14.490;2023-03-01T04:00:42;22.98;;;8.20;;
78169;SDS011;67412;49.892;14.490;2023-03-01T04:03:09;24.90;;;7.10;;
78169;SDS011;67412;49.892;14.490;2023-03-01T04:05:37;20.02;;;7.10;;
78169;SDS011;67412;49.892;14.490;2023-03-01T04:08:03;30.10;;;7.72;;
78169;SDS011;67412;49.892;14.490;2023-03-01T04:13:05;25.80;;;8.27;;
78169;SDS011;67412;49.892;14.490;2023-03-01T04:15:31;30.02;;;8.50;;
78169;SDS011;67412;49.892;14.490;2023-03-01T04:17:58;27.45;;;9.95;;
78169;SDS011;67412;49.892;14.490;2023-03-01T04:20:26;27.33;;;10.05;;
78169;SDS011;67412;49.892;14.490;2023-03-01T04:23:00;27.73;;;8.73;;
78169;SDS011;67412;49.892;14.490;2023-03-01T04:28:18;25.27;;;7.45;;
78169;SDS011;67412;49.892;14.490;2023-03-01T04:30:45;23.02;;;6.55;;
78169;SDS011;67412;49.892;14.490;2023-03-01T04:33:11;22.17;;;7.47;;
78169;SDS011;67412;49.892;14.490;2023-03-01T04:35:36;21.77;;;7.47;;
78169;SDS011;67412;49.892;14.490;2023-03-01T04:38:03;21.48;;;7.10;;
78169;SDS011;67412;49.892;14.490;2023-03-01T04:40:29;23.17;;;7.25;;
78169;SDS011;67412;49.892;14.490;2023-03-01T04:42:55;18.13;;;6.63;;
78169;SDS011;67412;49.892;14.490;2023-03-01T04:45:20;22.23;;;6.95;;
78169;SDS011;67412;49.892;14.490;2023-03-01T04:47:46;22.90;;;7.57;;
78169;SDS011;67412;49.892;14.490;2023-03-01T04:50:13;21.15;;;6.28;;
78169;SDS011;67412;49.892;14.490;2023-03-01T04:52:42;16.73;;;6.28;;
78169;SDS011;67412;49.892;14.490;2023-03-01T04:55:08;17.42;;;6.00;;
78169;SDS011;67412;49.892;14.490;2023-03-01T04:57:34;19.95;;;7.50;;
78169;SDS011;67412;49.892;14.490;2023-03-01T05:00:00;25.50;;;7.95;;
78169;SDS011;67412;49.892;14.490;2023-03-01T05:02:25;21.90;;;7.60;;
78169;SDS011;67412;49.892;14.490;2023-03-01T05:04:51;22.42;;;8.82;;
78169;SDS011;67412;49.892;14.490;2023-03-01T05:07:16;19.08;;;6.57;;
78169;SDS011;67412;49.892;14.490;2023-03-01T05:09:45;22.50;;;7.53;;
78169;SDS011;67412;49.892;14.490;2023-03-01T05:12:12;23.38;;;7.32;;
78169;SDS011;67412;49.892;14.490;2023-03-01T05:14:38;23.85;;;8.07;;
78169;SDS011;67412;49.892;14.490;2023-03-01T05:17:04;25.58;;;7.70;;
78169;SDS011;67412;49.892;14.490;2023-03-01T05:19:30;21.92;;;7.13;;
78169;SDS011;67412;49.892;14.490;2023-03-01T05:21:56;25.70;;;8.15;;
78169;SDS011;67412;49.892;14.490;2023-03-01T05:24:32;20.40;;;7.70;;
78169;SDS011;67412;49.892;14.490;2023-03-01T05:26:59;18.05;;;7.25;;
78169;SDS011;67412;49.892;14.490;2023-03-01T05:29:25;20.77;;;6.82;;
78169;SDS011;67412;49.892;14.490;2023-03-01T05:31:52;22.67;;;7.15;;
78169;SDS011;67412;49.892;14.490;2023-03-01T05:34:26;23.42;;;7.93;;
78169;SDS011;67412;49.892;14.490;2023-03-01T05:36:53;18.27;;;6.53;;
78169;SDS011;67412;49.892;14.490;2023-03-01T05:39:23;18.48;;;6.82;;
78169;SDS011;67412;49.892;14.490;2023-03-01T05:41:57;19.35;;;6.75;;
78169;SDS011;67412;49.892;14.490;2023-03-01T05:44:24;19.10;;;7.25;;
78169;SDS011;67412;49.892;14.490;2023-03-01T05:46:50;18.95;;;7.18;;
78169;SDS011;67412;49.892;14.490;2023-03-01T05:49:17;22.08;;;7.50;;
78169;SDS011;67412;49.892;14.490;2023-03-01T05:51:43;26.92;;;8.30;;
78169;SDS011;67412;49.892;14.490;2023-03-01T05:54:12;26.10;;;7.88;;
78169;SDS011;67412;49.892;14.490;2023-03-01T05:56:38;22.38;;;7.50;;
78169;SDS011;67412;49.892;14.490;2023-03-01T05:59:04;19.15;;;6.80;;
78169;SDS011;67412;49.892;14.490;2023-03-01T06:01:33;21.73;;;7.30;;
78169;SDS011;67412;49.892;14.490;2023-03-01T06:03:59;25.38;;;7.88;;
78169;SDS011;67412;49.892;14.490;2023-03-01T06:06:25;25.23;;;8.90;;
78169;SDS011;67412;49.892;14.490;2023-03-01T06:08:50;25.33;;;8.65;;
78169;SDS011;67412;49.892;14.490;2023-03-01T06:11:16;25.23;;;9.60;;
78169;SDS011;67412;49.892;14.490;2023-03-01T06:13:42;24.13;;;8.93;;
78169;SDS011;67412;49.892;14.490;2023-03-01T06:16:08;25.60;;;9.13;;
78169;SDS011;67412;49.892;14.490;2023-03-01T06:18:34;24.02;;;7.90;;
78169;SDS011;67412;49.892;14.490;2023-03-01T06:21:00;26.60;;;9.65;;
78169;SDS011;67412;49.892;14.490;2023-03-01T06:23:25;24.80;;;8.20;;
78169;SDS011;67412;49.892;14.490;2023-03-01T06:25:51;20.67;;;7.38;;
78169;SDS011;67412;49.892;14.490;2023-03-01T06:28:17;23.88;;;7.75;;
78169;SDS011;67412;49.892;14.490;2023-03-01T06:30:42;24.92;;;8.70;;
78169;SDS011;67412;49.892;14.490;2023-03-01T06:33:08;23.90;;;8.52;;
78169;SDS011;67412;49.892;14.490;2023-03-01T06:35:34;30.42;;;9.38;;
78169;SDS011;67412;49.892;14.490;2023-03-01T06:38:00;23.88;;;9.30;;
78169;SDS011;67412;49.892;14.490;2023-03-01T06:40:27;24.20;;;8.52;;
78169;SDS011;67412;49.892;14.490;2023-03-01T06:42:53;40.17;;;14.50;;
78169;SDS011;67412;49.892;14.490;2023-03-01T06:45:19;29.67;;;9.40;;
78169;SDS011;67412;49.892;14.490;2023-03-01T06:47:46;29.00;;;8.77;;
78169;SDS011;67412;49.892;14.490;2023-03-01T06:50:12;31.08;;;10.63;;
78169;SDS011;67412;49.892;14.490;2023-03-01T06:52:38;40.30;;;12.30;;
78169;SDS011;67412;49.892;14.490;2023-03-01T06:55:04;38.90;;;10.85;;
78169;SDS011;67412;49.892;14.490;2023-03-01T06:57:30;28.85;;;8.70;;
78169;SDS011;67412;49.892;14.490;2023-03-01T06:59:55;23.58;;;8.52;;
78169;SDS011;67412;49.892;14.490;2023-03-01T07:02:21;34.85;;;9.70;;
78169;SDS011;67412;49.892;14.490;2023-03-01T07:04:48;30.40;;;10.18;;
78169;SDS011;67412;49.892;14.490;2023-03-01T07:07:15;28.67;;;9.43;;
78169;SDS011;67412;49.892;14.490;2023-03-01T07:09:42;27.77;;;8.95;;
78169;SDS011;67412;49.892;14.490;2023-03-01T07:12:07;24.92;;;8.52;;
78169;SDS011;67412;49.892;14.490;2023-03-01T07:14:33;20.13;;;7.43;;
78169;SDS011;67412;49.892;14.490;2023-03-01T07:16:58;21.08;;;6.78;;
78169;SDS011;67412;49.892;14.490;2023-03-01T07:19:24;21.15;;;7.35;;
78169;SDS011;67412;49.892;14.490;2023-03-01T07:21:49;18.98;;;7.20;;
78169;SDS011;67412;49.892;14.490;2023-03-01T07:24:15;25.00;;;8.35;;
78169;SDS011;67412;49.892;14.490;2023-03-01T07:26:40;26.15;;;8.77;;
78169;SDS011;67412;49.892;14.490;2023-03-01T07:29:07;23.42;;;8.18;;
78169;SDS011;67412;49.892;14.490;2023-03-01T07:31:34;20.92;;;7.68;;
78169;SDS011;67412;49.892;14.490;2023-03-01T07:34:00;19.05;;;7.63;;
78169;SDS011;67412;49.892;14.490;2023-03-01T07:36:25;24.10;;;7.78;;
78169;SDS011;67412;49.892;14.490;2023-03-01T07:38:51;21.30;;;7.45;;
78169;SDS011;67412;49.892;14.490;2023-03-01T07:41:16;20.42;;;7.28;;
78169;SDS011;67412;49.892;14.490;2023-03-01T07:43:42;20.13;;;7.28;;
78169;SDS011;67412;49.892;14.490;2023-03-01T07:46:08;15.60;;;6.07;;
78169;SDS011;67412;49.892;14.490;2023-03-01T07:48:33;22.88;;;7.75;;
78169;SDS011;67412;49.892;14.490;2023-03-01T07:50:59;26.48;;;8.63;;
78169;SDS011;67412;49.892;14.490;2023-03-01T07:53:25;27.10;;;8.75;;
78169;SDS011;67412;49.892;14.490;2023-03-01T07:56:04;29.25;;;8.95;;
78169;SDS011;67412;49.892;14.490;2023-03-01T07:58:33;25.77;;;8.52;;
78169;SDS011;67412;49.892;14.490;2023-03-01T08:01:06;18.70;;;6.95;;
78169;SDS011;67412;49.892;14.490;2023-03-01T08:03:34;18.88;;;7.40;;
78169;SDS011;67412;49.892;14.490;2023-03-01T08:06:01;24.13;;;9.15;;
78169;SDS011;67412;49.892;14.490;2023-03-01T08:08:28;25.95;;;8.98;;
78169;SDS011;67412;49.892;14.490;2023-03-01T08:10:56;21.00;;;7.28;;
78169;SDS011;67412;49.892;14.490;2023-03-01T08:13:22;21.63;;;8.02;;
78169;SDS011;67412;49.892;14.490;2023-03-01T08:15:50;20.02;;;7.50;;
78169;SDS011;67412;49.892;14.490;2023-03-01T08:18:16;20.25;;;6.13;;
78169;SDS011;67412;49.892;14.490;2023-03-01T08:20:42;14.77;;;4.22;;
78169;SDS011;67412;49.892;14.490;2023-03-01T08:23:07;16.15;;;6.47;;
78169;SDS011;67412;49.892;14.490;2023-03-01T08:25:33;20.27;;;6.82;;
78169;SDS011;67412;49.892;14.490;2023-03-01T08:27:58;16.13;;;4.45;;
78169;SDS011;67412;49.892;14.490;2023-03-01T08:30:23;19.90;;;7.00;;
78169;SDS011;67412;49.892;14.490;2023-03-01T08:32:49;19.98;;;6.70;;
78169;SDS011;67412;49.892;14.490;2023-03-01T08:35:15;26.20;;;8.65;;
78169;SDS011;67412;49.892;14.490;2023-03-01T08:37:41;19.95;;;7.35;;
78169;SDS011;67412;49.892;14.490;2023-03-01T08:40:06;18.60;;;7.00;;
78169;SDS011;67412;49.892;14.490;2023-03-01T08:42:34;19.48;;;7.30;;
78169;SDS011;67412;49.892;14.490;2023-03-01T08:45:00;16.95;;;7.00;;
78169;SDS011;67412;49.892;14.490;2023-03-01T08:47:26;21.15;;;6.60;;
78169;SDS011;67412;49.892;14.490;2023-03-01T08:49:51;21.58;;;8.48;;
78169;SDS011;67412;49.892;14.490;2023-03-01T08:52:17;24.50;;;7.93;;
78169;SDS011;67412;49.892;14.490;2023-03-01T08:54:43;21.35;;;8.32;;
78169;SDS011;67412;49.892;14.490;2023-03-01T08:57:09;25.55;;;8.25;;
78169;SDS011;67412;49.892;14.490;2023-03-01T08:59:34;20.58;;;7.05;;
78169;SDS011;67412;49.892;14.490;2023-03-01T09:02:02;23.70;;;8.20;;
78169;SDS011;67412;49.892;14.490;2023-03-01T09:04:35;18.08;;;7.32;;
78169;SDS011;67412;49.892;14.490;2023-03-01T09:07:01;21.25;;;8.20;;
78169;SDS011;67412;49.892;14.490;2023-03-01T09:09:26;20.98;;;7.07;;
78169;SDS011;67412;49.892;14.490;2023-03-01T09:11:53;18.48;;;7.25;;
78169;SDS011;67412;49.892;14.490;2023-03-01T09:14:18;18.73;;;7.03;;
78169;SDS011;67412;49.892;14.490;2023-03-01T09:16:44;22.35;;;8.38;;
78169;SDS011;67412;49.892;14.490;2023-03-01T09:19:09;18.45;;;6.50;;
78169;SDS011;67412;49.892;14.490;2023-03-01T09:21:36;20.77;;;7.93;;
78169;SDS011;67412;49.892;14.490;2023-03-01T09:24:02;16.95;;;7.00;;
78169;SDS011;67412;49.892;14.490;2023-03-01T09:26:27;19.73;;;6.90;;
78169;SDS011;67412;49.892;14.490;2023-03-01T09:28:53;22.45;;;7.60;;
78169;SDS011;67412;49.892;14.490;2023-03-01T09:31:21;22.40;;;8.40;;
78169;SDS011;67412;49.892;14.490;2023-03-01T09:33:49;14.40;;;5.90;;
78169;SDS011;67412;49.892;14.490;2023-03-01T09:36:20;16.88;;;6.72;;
78169;SDS011;67412;49.892;14.490;2023-03-01T09:38:47;16.13;;;6.18;;
78169;SDS011;67412;49.892;14.490;2023-03-01T09:43:49;17.48;;;5.75;;
78169;SDS011;67412;49.892;14.490;2023-03-01T09:46:21;21.52;;;8.35;;
78169;SDS011;67412;49.892;14.490;2023-03-01T09:48:52;19.42;;;7.10;;
78169;SDS011;67412;49.892;14.490;2023-03-01T09:51:32;21.08;;;8.05;;
78169;SDS011;67412;49.892;14.490;2023-03-01T09:54:03;17.52;;;7.25;;
78169;SDS011;67412;49.892;14.490;2023-03-01T10:04:26;18.95;;;6.57;;
78169;SDS011;67412;49.892;14.490;2023-03-01T10:07:30;18.90;;;7.13;;
78169;SDS011;67412;49.892;14.490;2023-03-01T10:10:08;20.02;;;7.10;;
78169;SDS011;67412;49.892;14.490;2023-03-01T10:12:41;19.60;;;6.65;;
78169;SDS011;67412;49.892;14.490;2023-03-01T10:15:17;19.70;;;7.05;;
78169;SDS011;67412;49.892;14.490;2023-03-01T10:18:06;20.88;;;7.82;;
78169;SDS011;67412;49.892;14.490;2023-03-01T10:23:11;17.55;;;7.57;;
78169;SDS011;67412;49.892;14.490;2023-03-01T10:28:17;18.75;;;7.30;;
78169;SDS011;67412;49.892;14.490;2023-03-01T10:30:50;18.88;;;7.03;;
78169;SDS011;67412;49.892;14.490;2023-03-01T10:35:44;19.60;;;7.18;;
78169;SDS011;67412;49.892;14.490;2023-03-01T10:38:10;20.10;;;7.95;;
78169;SDS011;67412;49.892;14.490;2023-03-01T10:43:16;20.33;;;7.55;;
78169;SDS011;67412;49.892;14.490;2023-03-01T10:45:42;19.48;;;7.35;;
78169;SDS011;67412;49.892;14.490;2023-03-01T10:56:13;22.45;;;7.90;;
78169;SDS011;67412;49.892;14.490;2023-03-01T10:58:41;18.45;;;7.22;;
78169;SDS011;67412;49.892;14.490;2023-03-01T11:03:54;16.17;;;7.82;;
78169;SDS011;67412;49.892;14.490;2023-03-01T11:06:35;21.27;;;8.57;;
78169;SDS011;67412;49.892;14.490;2023-03-01T11:09:15;20.42;;;8.60;;
78169;SDS011;67412;49.892;14.490;2023-03-01T11:11:45;18.77;;;7.55;;
78169;SDS011;67412;49.892;14.490;2023-03-01T11:16:47;14.32;;;6.15;;
78169;SDS011;67412;49.892;14.490;2023-03-01T11:19:15;18.40;;;7.07;;
78169;SDS011;67412;49.892;14.490;2023-03-01T11:32:23;14.52;;;6.10;;
78169;SDS011;67412;49.892;14.490;2023-03-01T11:34:53;10.60;;;3.55;;
78169;SDS011;67412;49.892;14.490;2023-03-01T11:40:23;12.48;;;5.63;;
78169;SDS011;67412;49.892;14.490;2023-03-01T11:50:52;13.20;;;4.80;;
78169;SDS011;67412;49.892;14.490;2023-03-01T11:56:05;14.32;;;5.28;;
78169;SDS011;67412;49.892;14.490;2023-03-01T12:01:27;17.77;;;6.07;;
78169;SDS011;67412;49.892;14.490;2023-03-01T12:04:13;15.18;;;6.03;;
78169;SDS011;67412;49.892;14.490;2023-03-01T12:17:34;19.30;;;8.07;;
78169;SDS011;67412;49.892;14.490;2023-03-01T12:30:17;15.25;;;6.20;;
78169;SDS011;67412;49.892;14.490;2023-03-01T12:49:33;13.85;;;6.25;;
78169;SDS011;67412;49.892;14.490;2023-03-01T12:52:11;18.23;;;7.38;;
78169;SDS011;67412;49.892;14.490;2023-03-01T12:54:46;19.13;;;7.45;;
78169;SDS011;67412;49.892;14.490;2023-03-01T12:57:15;17.92;;;7.03;;
78169;SDS011;67412;49.892;14.490;2023-03-01T13:00:02;16.63;;;5.82;;
78169;SDS011;67412;49.892;14.490;2023-03-01T13:02:51;18.85;;;7.15;;
78169;SDS011;67412;49.892;14.490;2023-03-01T13:08:22;19.98;;;6.97;;
78169;SDS011;67412;49.892;14.490;2023-03-01T13:10:54;17.17;;;6.60;;
78169;SDS011;67412;49.892;14.490;2023-03-01T13:13:24;19.05;;;7.47;;
78169;SDS011;67412;49.892;14.490;2023-03-01T13:15:52;21.05;;;7.60;;
78169;SDS011;67412;49.892;14.490;2023-03-01T13:20:51;16.55;;;6.63;;
78169;SDS011;67412;49.892;14.490;2023-03-01T13:33:46;16.88;;;6.88;;
78169;SDS011;67412;49.892;14.490;2023-03-01T13:41:51;16.42;;;6.43;;
78169;SDS011;67412;49.892;14.490;2023-03-01T13:44:23;19.02;;;7.18;;
78169;SDS011;67412;49.892;14.490;2023-03-01T13:47:36;13.40;;;5.18;;
78169;SDS011;67412;49.892;14.490;2023-03-01T13:49:53;23.73;;;8.23;;
78169;SDS011;67412;49.892;14.490;2023-03-01T13:52:44;16.95;;;6.82;;
78169;SDS011;67412;49.892;14.490;2023-03-01T13:57:38;23.67;;;8.45;;
78169;SDS011;67412;49.892;14.490;2023-03-01T14:00:05;20.27;;;7.63;;
78169;SDS011;67412;49.892;14.490;2023-03-01T14:02:31;19.23;;;7.88;;
78169;SDS011;67412;49.892;14.490;2023-03-01T14:05:00;18.05;;;8.30;;
78169;SDS011;67412;49.892;14.490;2023-03-01T14:07:26;19.48;;;8.50;;
78169;SDS011;67412;49.892;14.490;2023-03-01T14:09:58;18.75;;;7.40;;
78169;SDS011;67412;49.892;14.490;2023-03-01T14:20:41;20.63;;;8.75;;
78169;SDS011;67412;49.892;14.490;2023-03-01T14:23:13;18.20;;;6.68;;
78169;SDS011;67412;49.892;14.490;2023-03-01T14:25:50;18.42;;;7.43;;
78169;SDS011;67412;49.892;14.490;2023-03-01T14:28:18;19.55;;;7.22;;
78169;SDS011;67412;49.892;14.490;2023-03-01T14:30:54;16.17;;;6.20;;
78169;SDS011;67412;49.892;14.490;2023-03-01T14:33:30;17.30;;;7.53;;
78169;SDS011;67412;49.892;14.490;2023-03-01T14:38:28;16.95;;;6.40;;
78169;SDS011;67412;49.892;14.490;2023-03-01T14:40:57;16.75;;;6.45;;
78169;SDS011;67412;49.892;14.490;2023-03-01T14:43:26;16.67;;;6.82;;
78169;SDS011;67412;49.892;14.490;2023-03-01T14:45:54;19.38;;;7.45;;
78169;SDS011;67412;49.892;14.490;2023-03-01T14:48:19;16.65;;;6.70;;
78169;SDS011;67412;49.892;14.490;2023-03-01T14:50:45;14.90;;;6.28;;
78169;SDS011;67412;49.892;14.490;2023-03-01T14:55:54;14.98;;;6.05;;
78169;SDS011;67412;49.892;14.490;2023-03-01T14:58:23;13.13;;;6.28;;
78169;SDS011;67412;49.892;14.490;2023-03-01T15:03:24;15.73;;;6.53;;
78169;SDS011;67412;49.892;14.490;2023-03-01T15:05:50;13.48;;;5.82;;
78169;SDS011;67412;49.892;14.490;2023-03-01T15:08:18;16.00;;;5.78;;
78169;SDS011;67412;49.892;14.490;2023-03-01T15:10:55;18.27;;;5.90;;
78169;SDS011;67412;49.892;14.490;2023-03-01T15:13:24;18.77;;;7.78;;
78169;SDS011;67412;49.892;14.490;2023-03-01T15:15:51;16.33;;;6.18;;
78169;SDS011;67412;49.892;14.490;2023-03-01T15:18:26;17.42;;;6.60;;
78169;SDS011;67412;49.892;14.490;2023-03-01T15:20:54;20.75;;;7.45;;
78169;SDS011;67412;49.892;14.490;2023-03-01T15:25:51;16.65;;;7.22;;
78169;SDS011;67412;49.892;14.490;2023-03-01T15:28:24;17.45;;;7.13;;
78169;SDS011;67412;49.892;14.490;2023-03-01T15:30:52;17.13;;;7.03;;
78169;SDS011;67412;49.892;14.490;2023-03-01T15:35:48;17.40;;;7.20;;
78169;SDS011;67412;49.892;14.490;2023-03-01T15:40:55;20.05;;;7.32;;
78169;SDS011;67412;49.892;14.490;2023-03-01T15:46:12;18.75;;;7.93;;
78169;SDS011;67412;49.892;14.490;2023-03-01T15:48:46;20.27;;;8.20;;
78169;SDS011;67412;49.892;14.490;2023-03-01T15:51:14;17.08;;;8.40;;
78169;SDS011;67412;49.892;14.490;2023-03-01T15:53:41;19.92;;;8.27;;
78169;SDS011;67412;49.892;14.490;2023-03-01T15:56:08;18.52;;;6.47;;
78169;SDS011;67412;49.892;14.490;2023-03-01T15:58:34;18.50;;;7.28;;
78169;SDS011;67412;49.892;14.490;2023-03-01T16:00:59;17.80;;;7.03;;
78169;SDS011;67412;49.892;14.490;2023-03-01T16:03:25;19.55;;;7.22;;
78169;SDS011;67412;49.892;14.490;2023-03-01T16:05:51;20.60;;;7.20;;
78169;SDS011;67412;49.892;14.490;2023-03-01T16:08:17;20.25;;;7.30;;
78169;SDS011;67412;49.892;14.490;2023-03-01T16:10:43;18.15;;;7.28;;
78169;SDS011;67412;49.892;14.490;2023-03-01T16:13:10;19.85;;;8.10;;
78169;SDS011;67412;49.892;14.490;2023-03-01T16:15:35;18.25;;;7.43;;
78169;SDS011;67412;49.892;14.490;2023-03-01T16:18:01;22.63;;;7.82;;
78169;SDS011;67412;49.892;14.490;2023-03-01T16:20:28;19.67;;;7.20;;
78169;SDS011;67412;49.892;14.490;2023-03-01T16:22:54;17.92;;;6.80;;
78169;SDS011;67412;49.892;14.490;2023-03-01T16:25:23;18.80;;;7.20;;
78169;SDS011;67412;49.892;14.490;2023-03-01T16:27:49;17.60;;;7.78;;
78169;SDS011;67412;49.892;14.490;2023-03-01T16:30:16;24.50;;;8.48;;
78169;SDS011;67412;49.892;14.490;2023-03-01T16:32:45;24.83;;;9.13;;
78169;SDS011;67412;49.892;14.490;2023-03-01T16:35:12;26.23;;;8.82;;
78169;SDS011;67412;49.892;14.490;2023-03-01T16:40:04;26.90;;;8.70;;
78169;SDS011;67412;49.892;14.490;2023-03-01T16:42:35;24.75;;;9.00;;
78169;SDS011;67412;49.892;14.490;2023-03-01T16:45:01;27.05;;;8.70;;
78169;SDS011;67412;49.892;14.490;2023-03-01T16:47:28;26.63;;;9.65;;
78169;SDS011;67412;49.892;14.490;2023-03-01T16:49:53;23.45;;;8.70;;
78169;SDS011;67412;49.892;14.490;2023-03-01T16:52:19;19.95;;;6.82;;
78169;SDS011;67412;49.892;14.490;2023-03-01T16:54:45;23.33;;;7.50;;
78169;SDS011;67412;49.892;14.490;2023-03-01T16:57:11;21.88;;;8.05;;
78169;SDS011;67412;49.892;14.490;2023-03-01T16:59:36;20.63;;;8.15;;
78169;SDS011;67412;49.892;14.490;2023-03-01T17:02:02;18.50;;;7.68;;
78169;SDS011;67412;49.892;14.490;2023-03-01T17:04:30;19.02;;;8.10;;
78169;SDS011;67412;49.892;14.490;2023-03-01T17:06:57;24.95;;;9.38;;
78169;SDS011;67412;49.892;14.490;2023-03-01T17:09:22;27.52;;;9.48;;
78169;SDS011;67412;49.892;14.490;2023-03-01T17:11:48;24.25;;;9.15;;
78169;SDS011;67412;49.892;14.490;2023-03-01T17:14:14;32.22;;;10.18;;
78169;SDS011;67412;49.892;14.490;2023-03-01T17:16:41;38.70;;;13.73;;